Manchester, New Hampshire
Current Conditions -  °F | °C
As of 4:53 PM on Friday 24 Oct 2014 (Local Time) from KMHT Reporting Station
Broken Clouds Broken Clouds  
Wind Chill: 51°   Ceiling: 2500
Heat Index: 51°   Visibility: 10mi
Dew Point: 40°   Wind: 10mph
Humidity: 66%   Direction: 320°NW
Pressure: 29.69"   Gusts: 17mph
Location:  42.99°N, 71.46°W
Report Text: KMHT 242053Z 32009G15KT 10SM BKN025 BKN035 11/04 A2969 RMK AO2 SLP066 T01060044 55003
Loading
Personal Weather Stations






























Interactive Weather Map New forecast layout! Learn more

10-Day Weather Forecast

Advertisements
Track Severe Weather on mobile